Gure Amuitz — EASO — position and weather

sailwx.info

Track history (hours):
 
Tides and Currents Weather Stations Pressure Air Temp Water Temp Dewpoint Dewpoint Depression Visibility Wind Speed Wind Dir Waves Ship Positions

Gure Amuitz

Last reported at 2017-Aug-18 05:45 UTC. Time now 2017-Aug-20 08:08 UTC.
Position N 43°50' W 005°51'.

Length 28 m.

Type: Fishing. MMSI: 224010590.

Date/timePositionNaut miles runAvg speedWind from/ knotsBaromVisibWave heightAir tempDewpointWater temp
2017-Aug-18 05:45N 43°50' W 005°51'3 8.1
2017-Aug-18 05:26N 43°49' W 005°49'3 8.1
2017-Aug-18 05:01N 43°47' W 005°45'4 8.0
2017-Aug-18 04:30N 43°44' W 005°40'4 8.1
2017-Aug-18 04:01N 43°42' W 005°36'4 8.2
2017-Aug-18 03:30N 43°39' W 005°32'2 4.8
2017-Aug-18 03:01N 43°38' W 005°29'0 0.2
2017-Aug-18 02:30N 43°38' W 005°29'0 0.1
2017-Aug-18 01:55N 43°38' W 005°29'0 0.1
2017-Aug-18 01:31N 43°37' W 005°29'0 0.1
2017-Aug-18 01:01N 43°37' W 005°29'0 0.6
2017-Aug-18 00:30N 43°37' W 005°29'1 1.6
2017-Aug-17 23:59N 43°37' W 005°30'3 5.6
2017-Aug-17 23:30N 43°39' W 005°33'  
2017-Aug-10 19:34N 43°31' W 001°56'1 6.9
2017-Aug-10 19:27N 43°30' W 001°55'4 7.1
2017-Aug-10 18:54N 43°28' W 001°51'3 7.4
2017-Aug-10 18:29N 43°25' W 001°48'2 4.8
2017-Aug-10 18:00N 43°23' W 001°47'0 0.0
2017-Aug-10 17:30N 43°23' W 001°47'0 0.0
2017-Aug-10 17:00N 43°23' W 001°47'0 0.0
2017-Aug-10 16:30N 43°23' W 001°47'0 0.0
2017-Aug-10 16:00N 43°23' W 001°47'0 0.0
2017-Aug-10 15:30N 43°23' W 001°47'0 0.0
2017-Aug-10 15:00N 43°23' W 001°47'0 0.0
2017-Aug-10 14:30N 43°23' W 001°47'0 0.0
2017-Aug-10 14:00N 43°23' W 001°47'0 0.0
2017-Aug-10 13:30N 43°23' W 001°47'0 0.0
2017-Aug-10 13:00N 43°23' W 001°47'0 0.0
2017-Aug-10 12:30N 43°23' W 001°47'0 0.0
2017-Aug-10 12:00N 43°23' W 001°47'0 0.0
2017-Aug-10 11:30N 43°23' W 001°47'0 0.0
2017-Aug-10 11:00N 43°23' W 001°47'0 0.0
2017-Aug-10 10:30N 43°23' W 001°47'0 0.0
2017-Aug-10 10:00N 43°23' W 001°47'0 0.0
2017-Aug-10 09:30N 43°23' W 001°47'0 0.0
2017-Aug-10 09:00N 43°23' W 001°47'0 0.0
2017-Aug-10 08:30N 43°23' W 001°47'0 0.0
2017-Aug-10 08:00N 43°23' W 001°47'0 0.0
2017-Aug-10 07:30N 43°23' W 001°47'0 0.0
2017-Aug-10 07:00N 43°23' W 001°47'0 0.0
2017-Aug-10 06:30N 43°23' W 001°47'0 0.0
2017-Aug-10 06:00N 43°23' W 001°47'0 0.0
2017-Aug-10 05:30N 43°23' W 001°47'0 0.0
2017-Aug-10 05:00N 43°23' W 001°47'0 0.0
2017-Aug-10 04:30N 43°23' W 001°47'0 0.0
2017-Aug-10 04:00N 43°23' W 001°47'0 0.0
2017-Aug-10 03:30N 43°23' W 001°47'0 0.0
2017-Aug-10 03:00N 43°23' W 001°47'0 0.0
2017-Aug-10 02:30N 43°23' W 001°47'0 0.0
2017-Aug-10 02:00N 43°23' W 001°47'0 0.0
2017-Aug-10 01:30N 43°23' W 001°47'0 0.0
2017-Aug-10 01:00N 43°23' W 001°47'0 0.0
2017-Aug-10 00:30N 43°23' W 001°47'0 0.0
2017-Aug-10 00:00N 43°23' W 001°47'0 0.0
2017-Aug-09 23:30N 43°23' W 001°47'0 0.0
2017-Aug-09 23:00N 43°23' W 001°47'0 0.0
2017-Aug-09 22:30N 43°23' W 001°47'0 0.0
2017-Aug-09 22:00N 43°23' W 001°47'0 0.0
2017-Aug-09 21:30N 43°23' W 001°47'0 0.0
2017-Aug-09 21:00N 43°23' W 001°47'0 0.0
2017-Aug-09 20:30N 43°23' W 001°47'0 0.0
2017-Aug-09 20:00N 43°23' W 001°47'0 0.0
2017-Aug-09 19:30N 43°23' W 001°47'0 0.0
2017-Aug-09 19:00N 43°23' W 001°47'0 0.0
2017-Aug-09 18:30N 43°23' W 001°47'0 0.0
2017-Aug-09 18:00N 43°23' W 001°47'0 0.0
2017-Aug-09 17:30N 43°23' W 001°47'0 0.0
2017-Aug-09 17:00N 43°23' W 001°47'0 0.0
2017-Aug-09 16:30N 43°23' W 001°47'0 0.0
2017-Aug-09 16:00N 43°23' W 001°47'0 0.0
2017-Aug-09 15:30N 43°23' W 001°47'0 0.0
2017-Aug-09 15:00N 43°23' W 001°47'0 0.0
2017-Aug-09 14:30N 43°23' W 001°47'0 0.0
2017-Aug-09 14:00N 43°23' W 001°47'0 0.0
2017-Aug-09 13:30N 43°23' W 001°47'0 0.0
2017-Aug-09 13:00N 43°23' W 001°47'0 0.0
2017-Aug-09 12:30N 43°23' W 001°47'0 0.0
2017-Aug-09 12:00N 43°23' W 001°47'0 0.0
2017-Aug-09 11:30N 43°23' W 001°47'0 0.0
2017-Aug-09 11:00N 43°23' W 001°47'0 0.0
2017-Aug-09 10:30N 43°23' W 001°47'0 0.0
2017-Aug-09 10:00N 43°23' W 001°47'0 0.0
2017-Aug-09 09:30N 43°23' W 001°47'0 0.0
2017-Aug-09 09:00N 43°23' W 001°47'0 0.0
2017-Aug-09 08:30N 43°23' W 001°47'0 0.0
2017-Aug-09 08:00N 43°23' W 001°47'0 0.0
2017-Aug-09 07:30N 43°23' W 001°47'0 0.0
2017-Aug-09 07:00N 43°23' W 001°47'0 0.0
2017-Aug-09 06:30N 43°23' W 001°47'0 0.1
2017-Aug-09 06:00N 43°23' W 001°47'0 0.0
2017-Aug-09 05:30N 43°23' W 001°47'0 0.0
2017-Aug-09 05:00N 43°23' W 001°47'0 0.2
2017-Aug-09 04:30N 43°23' W 001°47'0 0.1
2017-Aug-09 04:00N 43°23' W 001°48'0 0.0
2017-Aug-09 03:30N 43°23' W 001°48'0 0.0
2017-Aug-09 03:00N 43°23' W 001°48'0 0.0
2017-Aug-09 02:30N 43°23' W 001°48'0 0.0
2017-Aug-09 02:00N 43°23' W 001°48'0 0.0
2017-Aug-09 01:30N 43°23' W 001°48'0 0.0
2017-Aug-09 01:00N 43°23' W 001°48'0 0.0
2017-Aug-09 00:30N 43°23' W 001°48'0 0.0
2017-Aug-09 00:00N 43°23' W 001°48'0 0.0
2017-Aug-08 23:30N 43°23' W 001°48'0 0.0
2017-Aug-08 23:00N 43°23' W 001°48'0 0.0
2017-Aug-08 22:30N 43°23' W 001°48'0 0.0
2017-Aug-08 22:00N 43°23' W 001°48'0 0.0
2017-Aug-08 21:30N 43°23' W 001°48'0 0.0
2017-Aug-08 21:00N 43°23' W 001°48'0 0.0
2017-Aug-08 20:30N 43°23' W 001°48'0 0.0
2017-Aug-08 20:00N 43°23' W 001°48'0 0.0
2017-Aug-08 19:30N 43°23' W 001°48'0 0.0
2017-Aug-08 19:00N 43°23' W 001°48'0 0.0
2017-Aug-08 18:30N 43°23' W 001°48'0 0.0
2017-Aug-08 18:00N 43°23' W 001°48'0 0.0
2017-Aug-08 17:30N 43°23' W 001°48'0 0.0
2017-Aug-08 17:00N 43°23' W 001°48'0 0.0
2017-Aug-08 16:30N 43°23' W 001°48'0 0.0
2017-Aug-08 16:00N 43°23' W 001°48'0 0.0
2017-Aug-08 15:30N 43°23' W 001°48'0 0.0
2017-Aug-08 15:00N 43°23' W 001°48'0 0.0
2017-Aug-08 14:30N 43°23' W 001°48'0 0.0
2017-Aug-08 14:00N 43°23' W 001°48'0 0.0
2017-Aug-08 13:30N 43°23' W 001°48'0 0.0
2017-Aug-08 13:00N 43°23' W 001°48'0 0.0
2017-Aug-08 12:30N 43°23' W 001°48'0 0.0
2017-Aug-08 12:00N 43°23' W 001°48'0 0.0
2017-Aug-08 11:30N 43°23' W 001°48'0 0.0
2017-Aug-08 11:00N 43°23' W 001°48'0 0.0
2017-Aug-08 10:30N 43°23' W 001°48'3 6.4
2017-Aug-08 10:00N 43°26' W 001°49'  
Track history (hours):
 
Tides and Currents Weather Stations Pressure Air Temp Water Temp Dewpoint Dewpoint Depression Visibility Wind Speed Wind Dir Waves Ship Positions

Gure Amuitz

Last reported at 2017-Aug-18 05:45 UTC. Time now 2017-Aug-20 08:08 UTC.
Position N 43°50' W 005°51'.

Length 28 m.

Type: Fishing. MMSI: 224010590.

Date/timePositionNaut miles runAvg speedWind from/ knotsBaromVisibWave heightAir tempDewpointWater temp
2017-Aug-18 05:45N 43°50' W 005°51'3 8.1
2017-Aug-18 05:26N 43°49' W 005°49'3 8.1
2017-Aug-18 05:01N 43°47' W 005°45'4 8.0
2017-Aug-18 04:30N 43°44' W 005°40'4 8.1
2017-Aug-18 04:01N 43°42' W 005°36'4 8.2
2017-Aug-18 03:30N 43°39' W 005°32'2 4.8
2017-Aug-18 03:01N 43°38' W 005°29'0 0.2
2017-Aug-18 02:30N 43°38' W 005°29'0 0.1
2017-Aug-18 01:55N 43°38' W 005°29'0 0.1
2017-Aug-18 01:31N 43°37' W 005°29'0 0.1
2017-Aug-18 01:01N 43°37' W 005°29'0 0.6
2017-Aug-18 00:30N 43°37' W 005°29'1 1.6
2017-Aug-17 23:59N 43°37' W 005°30'3 5.6
2017-Aug-17 23:30N 43°39' W 005°33'  
2017-Aug-10 19:34N 43°31' W 001°56'1 6.9
2017-Aug-10 19:27N 43°30' W 001°55'4 7.1
2017-Aug-10 18:54N 43°28' W 001°51'3 7.4
2017-Aug-10 18:29N 43°25' W 001°48'2 4.8
2017-Aug-10 18:00N 43°23' W 001°47'0 0.0
2017-Aug-10 17:30N 43°23' W 001°47'0 0.0
2017-Aug-10 17:00N 43°23' W 001°47'0 0.0
2017-Aug-10 16:30N 43°23' W 001°47'0 0.0
2017-Aug-10 16:00N 43°23' W 001°47'0 0.0
2017-Aug-10 15:30N 43°23' W 001°47'0 0.0
2017-Aug-10 15:00N 43°23' W 001°47'0 0.0
2017-Aug-10 14:30N 43°23' W 001°47'0 0.0
2017-Aug-10 14:00N 43°23' W 001°47'0 0.0
2017-Aug-10 13:30N 43°23' W 001°47'0 0.0
2017-Aug-10 13:00N 43°23' W 001°47'0 0.0
2017-Aug-10 12:30N 43°23' W 001°47'0 0.0
2017-Aug-10 12:00N 43°23' W 001°47'0 0.0
2017-Aug-10 11:30N 43°23' W 001°47'0 0.0
2017-Aug-10 11:00N 43°23' W 001°47'0 0.0
2017-Aug-10 10:30N 43°23' W 001°47'0 0.0
2017-Aug-10 10:00N 43°23' W 001°47'0 0.0
2017-Aug-10 09:30N 43°23' W 001°47'0 0.0
2017-Aug-10 09:00N 43°23' W 001°47'0 0.0
2017-Aug-10 08:30N 43°23' W 001°47'0 0.0
2017-Aug-10 08:00N 43°23' W 001°47'0 0.0
2017-Aug-10 07:30N 43°23' W 001°47'0 0.0
2017-Aug-10 07:00N 43°23' W 001°47'0 0.0
2017-Aug-10 06:30N 43°23' W 001°47'0 0.0
2017-Aug-10 06:00N 43°23' W 001°47'0 0.0
2017-Aug-10 05:30N 43°23' W 001°47'0 0.0
2017-Aug-10 05:00N 43°23' W 001°47'0 0.0
2017-Aug-10 04:30N 43°23' W 001°47'0 0.0
2017-Aug-10 04:00N 43°23' W 001°47'0 0.0
2017-Aug-10 03:30N 43°23' W 001°47'0 0.0
2017-Aug-10 03:00N 43°23' W 001°47'0 0.0
2017-Aug-10 02:30N 43°23' W 001°47'0 0.0
2017-Aug-10 02:00N 43°23' W 001°47'0 0.0
2017-Aug-10 01:30N 43°23' W 001°47'0 0.0
2017-Aug-10 01:00N 43°23' W 001°47'0 0.0
2017-Aug-10 00:30N 43°23' W 001°47'0 0.0
2017-Aug-10 00:00N 43°23' W 001°47'0 0.0
2017-Aug-09 23:30N 43°23' W 001°47'0 0.0
2017-Aug-09 23:00N 43°23' W 001°47'0 0.0
2017-Aug-09 22:30N 43°23' W 001°47'0 0.0
2017-Aug-09 22:00N 43°23' W 001°47'0 0.0
2017-Aug-09 21:30N 43°23' W 001°47'0 0.0
2017-Aug-09 21:00N 43°23' W 001°47'0 0.0
2017-Aug-09 20:30N 43°23' W 001°47'0 0.0
2017-Aug-09 20:00N 43°23' W 001°47'0 0.0
2017-Aug-09 19:30N 43°23' W 001°47'0 0.0
2017-Aug-09 19:00N 43°23' W 001°47'0 0.0
2017-Aug-09 18:30N 43°23' W 001°47'0 0.0
2017-Aug-09 18:00N 43°23' W 001°47'0 0.0
2017-Aug-09 17:30N 43°23' W 001°47'0 0.0
2017-Aug-09 17:00N 43°23' W 001°47'0 0.0
2017-Aug-09 16:30N 43°23' W 001°47'0 0.0
2017-Aug-09 16:00N 43°23' W 001°47'0 0.0
2017-Aug-09 15:30N 43°23' W 001°47'0 0.0
2017-Aug-09 15:00N 43°23' W 001°47'0 0.0
2017-Aug-09 14:30N 43°23' W 001°47'0 0.0
2017-Aug-09 14:00N 43°23' W 001°47'0 0.0
2017-Aug-09 13:30N 43°23' W 001°47'0 0.0
2017-Aug-09 13:00N 43°23' W 001°47'0 0.0
2017-Aug-09 12:30N 43°23' W 001°47'0 0.0
2017-Aug-09 12:00N 43°23' W 001°47'0 0.0
2017-Aug-09 11:30N 43°23' W 001°47'0 0.0
2017-Aug-09 11:00N 43°23' W 001°47'0 0.0
2017-Aug-09 10:30N 43°23' W 001°47'0 0.0
2017-Aug-09 10:00N 43°23' W 001°47'0 0.0
2017-Aug-09 09:30N 43°23' W 001°47'0 0.0
2017-Aug-09 09:00N 43°23' W 001°47'0 0.0
2017-Aug-09 08:30N 43°23' W 001°47'0 0.0
2017-Aug-09 08:00N 43°23' W 001°47'0 0.0
2017-Aug-09 07:30N 43°23' W 001°47'0 0.0
2017-Aug-09 07:00N 43°23' W 001°47'0 0.0
2017-Aug-09 06:30N 43°23' W 001°47'0 0.1
2017-Aug-09 06:00N 43°23' W 001°47'0 0.0
2017-Aug-09 05:30N 43°23' W 001°47'0 0.0
2017-Aug-09 05:00N 43°23' W 001°47'0 0.2
2017-Aug-09 04:30N 43°23' W 001°47'0 0.1
2017-Aug-09 04:00N 43°23' W 001°48'0 0.0
2017-Aug-09 03:30N 43°23' W 001°48'0 0.0
2017-Aug-09 03:00N 43°23' W 001°48'0 0.0
2017-Aug-09 02:30N 43°23' W 001°48'0 0.0
2017-Aug-09 02:00N 43°23' W 001°48'0 0.0
2017-Aug-09 01:30N 43°23' W 001°48'0 0.0
2017-Aug-09 01:00N 43°23' W 001°48'0 0.0
2017-Aug-09 00:30N 43°23' W 001°48'0 0.0
2017-Aug-09 00:00N 43°23' W 001°48'0 0.0
2017-Aug-08 23:30N 43°23' W 001°48'0 0.0
2017-Aug-08 23:00N 43°23' W 001°48'0 0.0
2017-Aug-08 22:30N 43°23' W 001°48'0 0.0
2017-Aug-08 22:00N 43°23' W 001°48'0 0.0
2017-Aug-08 21:30N 43°23' W 001°48'0 0.0
2017-Aug-08 21:00N 43°23' W 001°48'0 0.0
2017-Aug-08 20:30N 43°23' W 001°48'0 0.0
2017-Aug-08 20:00N 43°23' W 001°48'0 0.0
2017-Aug-08 19:30N 43°23' W 001°48'0 0.0
2017-Aug-08 19:00N 43°23' W 001°48'0 0.0
2017-Aug-08 18:30N 43°23' W 001°48'0 0.0
2017-Aug-08 18:00N 43°23' W 001°48'0 0.0
2017-Aug-08 17:30N 43°23' W 001°48'0 0.0
2017-Aug-08 17:00N 43°23' W 001°48'0 0.0
2017-Aug-08 16:30N 43°23' W 001°48'0 0.0
2017-Aug-08 16:00N 43°23' W 001°48'0 0.0
2017-Aug-08 15:30N 43°23' W 001°48'0 0.0
2017-Aug-08 15:00N 43°23' W 001°48'0 0.0
2017-Aug-08 14:30N 43°23' W 001°48'0 0.0
2017-Aug-08 14:00N 43°23' W 001°48'0 0.0
2017-Aug-08 13:30N 43°23' W 001°48'0 0.0
2017-Aug-08 13:00N 43°23' W 001°48'0 0.0
2017-Aug-08 12:30N 43°23' W 001°48'0 0.0
2017-Aug-08 12:00N 43°23' W 001°48'0 0.0
2017-Aug-08 11:30N 43°23' W 001°48'0 0.0
2017-Aug-08 11:00N 43°23' W 001°48'0 0.0
2017-Aug-08 10:30N 43°23' W 001°48'3 6.4
2017-Aug-08 10:00N 43°26' W 001°49'  

Dump ship's entire track history